Terminal Aerodrome Forecast
Issued by NWS

Home | Current Version | Previous Version | Graphics & Text | Print | Product List | Glossary On
Versions: 1 2 3 4 5 6 7 8 9 10 11 12 13 14 15 16 17
000
FTUS43 KICT 201739
TAFCNU
TAF
KCNU 201739Z 2018/2118 36012G21KT P6SM BKN100
     FM202100 01008KT P6SM BKN100
     FM210800 05008KT P6SM VCSH OVC060
     FM211400 06009KT P6SM -SHRA BKN025 OVC050=

USA.gov is the U.S. government's official web portal to all federal, state and local government web resources and services.